Time;durP1;ratioP1;P1;durP2;ratioP2;P2;SDS_P1;SDS_P2;PMS_P1;PMS_P2;Temp;Humidity;BMP_temperature;BMP_pressure;BME280_temperature;BME280_humidity;BME280_pressure;Samples;Min_cycle;Max_cycle;Signal;HPM_P1;HPM_P2
2023/09/14 00:02:19;;;;;;;5.23;4.83;;;22.30;41.70;;;;;;10403771;28;20229;-70
2023/09/14 00:07:23;;;;;;;5.63;5.13;;;22.20;42.00;;;;;;10412126;28;20335;-70
2023/09/14 00:12:27;;;;;;;5.17;4.77;;;22.20;42.60;;;;;;10407840;28;20236;-68
2023/09/14 00:17:30;;;;;;;5.93;5.53;;;22.20;42.00;;;;;;10407415;28;20264;-70
2023/09/14 00:22:34;;;;;;;5.47;5.07;;;22.10;42.20;;;;;;10400148;28;20222;-69
2023/09/14 00:27:38;;;;;;;6.20;5.70;;;22.10;42.80;;;;;;10397176;23;20693;-73
2023/09/14 00:32:42;;;;;;;5.43;5.00;;;22.10;42.30;;;;;;10289888;28;20240;-73
2023/09/14 00:37:47;;;;;;;5.60;5.20;;;22.00;42.20;;;;;;10251300;28;20236;-73
2023/09/14 00:42:52;;;;;;;5.57;5.07;;;21.90;42.80;;;;;;10252168;28;20231;-73
2023/09/14 00:47:58;;;;;;;6.03;5.53;;;21.90;42.40;;;;;;10250631;28;20227;-73
2023/09/14 00:53:07;;;;;;;5.80;5.40;;;21.90;42.90;;;;;;10251972;28;20314;-73
2023/09/14 00:58:15;;;;;;;4.90;4.50;;;21.90;43.30;;;;;;10255730;28;20251;-73
2023/09/14 01:03:18;;;;;;;5.27;4.87;;;21.80;42.30;;;;;;10246137;28;20371;-73
2023/09/14 01:08:23;;;;;;;6.10;5.50;;;21.90;42.40;;;;;;10253053;28;20236;-74
2023/09/14 01:13:31;;;;;;;5.50;5.10;;;21.80;42.60;;;;;;10248111;28;20235;-74
2023/09/14 01:18:43;;;;;;;5.40;4.90;;;21.80;43.00;;;;;;10250592;28;20236;-73
2023/09/14 01:23:56;;;;;;;4.80;4.40;;;21.80;43.00;;;;;;10254184;28;20228;-73
2023/09/14 01:29:04;;;;;;;5.80;5.30;;;21.80;42.80;;;;;;10251389;28;20242;-73
2023/09/14 01:34:07;;;;;;;5.50;5.10;;;21.80;42.30;;;;;;10254953;28;20310;-73
2023/09/14 01:39:13;;;;;;;5.33;4.93;;;21.80;41.90;;;;;;10250741;28;20228;-73
2023/09/14 01:44:18;;;;;;;6.53;6.00;;;21.80;42.00;;;;;;10253442;28;20236;-73
2023/09/14 01:49:21;;;;;;;5.07;4.60;;;21.70;42.30;;;;;;10246929;28;20753;-73
2023/09/14 01:54:25;;;;;;;5.30;4.90;;;21.60;42.00;;;;;;10254649;28;20651;-73
2023/09/14 01:59:29;;;;;;;5.60;5.10;;;21.50;42.40;;;;;;10252502;28;20232;-73
2023/09/14 02:04:32;;;;;;;6.10;5.67;;;21.40;42.80;;;;;;10253870;28;20904;-73
2023/09/14 02:09:35;;;;;;;4.93;4.53;;;21.40;42.60;;;;;;10254270;28;20330;-73
2023/09/14 02:14:40;;;;;;;6.07;5.60;;;21.40;42.40;;;;;;10248815;28;20259;-70
2023/09/14 02:19:44;;;;;;;6.63;6.10;;;21.40;43.60;;;;;;10251368;28;20254;-71
2023/09/14 02:24:47;;;;;;;6.17;5.47;;;21.40;42.40;;;;;;10251404;28;20292;-71
2023/09/14 02:29:54;;;;;;;6.60;6.00;;;21.20;42.40;;;;;;10251240;28;20220;-71
2023/09/14 02:34:57;;;;;;;7.43;6.87;;;21.10;43.70;;;;;;10249519;28;20238;-71
2023/09/14 02:40:00;;;;;;;7.30;6.70;;;21.00;43.20;;;;;;10250076;28;20242;-71
2023/09/14 02:45:06;;;;;;;6.90;6.30;;;21.10;43.30;;;;;;10252735;28;20889;-71
2023/09/14 02:50:10;;;;;;;6.97;6.40;;;21.10;43.80;;;;;;10254073;28;20231;-71
2023/09/14 02:55:13;;;;;;;8.17;7.40;;;21.10;43.20;;;;;;10248243;28;20601;-71
2023/09/14 03:00:18;;;;;;;7.37;6.77;;;21.00;43.10;;;;;;10248556;28;21037;-71
2023/09/14 03:05:21;;;;;;;8.03;7.23;;;21.00;43.50;;;;;;10256593;28;20234;-70
2023/09/14 03:10:24;;;;;;;8.07;7.47;;;21.00;43.20;;;;;;10252514;28;20927;-70
2023/09/14 03:15:29;;;;;;;8.37;7.67;;;21.00;43.20;;;;;;10250120;28;20250;-70
2023/09/14 03:20:32;;;;;;;8.20;7.57;;;21.00;43.60;;;;;;10248861;28;20242;-74
2023/09/14 03:25:35;;;;;;;8.83;8.03;;;21.00;43.20;;;;;;10246146;28;20236;-74
2023/09/14 03:30:40;;;;;;;8.37;7.67;;;21.00;43.20;;;;;;10246063;28;20238;-74
2023/09/14 03:35:43;;;;;;;8.43;7.73;;;21.00;43.40;;;;;;10247558;28;20242;-73
2023/09/14 03:40:46;;;;;;;8.93;7.30;;;21.00;43.10;;;;;;10253530;28;20223;-70
2023/09/14 03:45:51;;;;;;;8.63;7.93;;;20.90;43.10;;;;;;10250852;28;20223;-73
2023/09/14 03:50:58;;;;;;;8.33;7.53;;;21.00;43.60;;;;;;10248030;28;20224;-71
2023/09/14 03:56:02;;;;;;;7.80;7.10;;;20.90;43.00;;;;;;10251356;28;20262;-70
2023/09/14 04:01:07;;;;;;;9.93;9.10;;;20.90;43.00;;;;;;10257303;28;20238;-70
2023/09/14 04:06:10;;;;;;;11.03;10.23;;;20.90;43.50;;;;;;10259925;28;20235;-70
2023/09/14 04:11:13;;;;;;;11.97;10.87;;;20.80;43.00;;;;;;10265616;28;20270;-71
2023/09/14 04:16:17;;;;;;;12.33;11.23;;;20.70;43.20;;;;;;10265293;28;20227;-71
2023/09/14 04:21:21;;;;;;;13.53;12.27;;;20.50;43.80;;;;;;10253492;28;20272;-73
2023/09/14 04:26:26;;;;;;;15.30;13.83;;;20.40;43.60;;;;;;10265460;28;20235;-70
2023/09/14 04:31:31;;;;;;;14.87;13.57;;;20.40;43.90;;;;;;10267170;28;20236;-71
2023/09/14 04:36:35;;;;;;;14.57;13.10;;;20.20;44.40;;;;;;10268130;28;20671;-71
2023/09/14 04:41:39;;;;;;;16.23;14.67;;;20.30;44.10;;;;;;10266511;28;20238;-70
2023/09/14 04:46:44;;;;;;;15.60;14.20;;;20.30;44.30;;;;;;10262421;28;20231;-71
2023/09/14 04:51:48;;;;;;;15.60;14.07;;;20.40;44.90;;;;;;10260296;28;20228;-74
2023/09/14 04:56:51;;;;;;;14.77;13.57;;;20.40;44.80;;;;;;10258537;28;20227;-73
2023/09/14 05:01:56;;;;;;;14.90;13.50;;;20.40;44.50;;;;;;10265524;28;20227;-70
2023/09/14 05:06:59;;;;;;;13.73;12.43;;;20.40;44.80;;;;;;10262061;28;20291;-70
2023/09/14 05:12:03;;;;;;;13.73;12.53;;;20.50;44.60;;;;;;10251974;28;20795;-71
2023/09/14 05:17:07;;;;;;;15.17;13.73;;;20.50;44.60;;;;;;10254492;28;20238;-73
2023/09/14 05:22:11;;;;;;;15.23;13.63;;;20.60;45.10;;;;;;10251042;28;20232;-73
2023/09/14 05:27:14;;;;;;;12.40;11.27;;;20.60;44.70;;;;;;10251685;28;20234;-74
2023/09/14 05:32:19;;;;;;;12.00;10.83;;;20.50;44.60;;;;;;10259525;28;20232;-72
2023/09/14 05:37:22;;;;;;;14.03;12.73;;;20.40;45.10;;;;;;10258386;28;20239;-71
2023/09/14 05:42:25;;;;;;;14.70;13.30;;;20.50;44.90;;;;;;10257418;28;20240;-73
2023/09/14 05:47:30;;;;;;;13.73;12.53;;;20.50;44.90;;;;;;10256316;28;20311;-73
2023/09/14 05:52:33;;;;;;;12.97;11.73;;;20.60;45.30;;;;;;10245123;28;20317;-73
2023/09/14 05:57:38;;;;;;;13.07;11.87;;;20.60;45.10;;;;;;10256585;28;21201;-72
2023/09/14 06:02:43;;;;;;;13.57;12.40;;;20.60;45.40;;;;;;10257884;28;21093;-72
2023/09/14 06:07:46;;;;;;;12.90;11.70;;;20.60;45.70;;;;;;10260958;28;21050;-72
2023/09/14 06:12:50;;;;;;;12.63;11.53;;;20.70;45.20;;;;;;10260995;28;20858;-72
2023/09/14 06:17:55;;;;;;;14.00;12.70;;;20.70;45.50;;;;;;10252727;28;20228;-72
2023/09/14 06:22:58;;;;;;;13.07;11.80;;;20.70;45.70;;;;;;10250373;28;20278;-73
2023/09/14 06:28:01;;;;;;;13.47;12.17;;;20.80;45.80;;;;;;10247447;28;20234;-73
2023/09/14 06:33:07;;;;;;;14.17;12.93;;;20.80;45.40;;;;;;10254352;28;20234;-72
2023/09/14 06:38:10;;;;;;;13.57;12.37;;;20.90;45.90;;;;;;10246439;28;20232;-73
2023/09/14 06:43:14;;;;;;;14.10;12.70;;;21.00;45.50;;;;;;10255291;28;20232;-73
2023/09/14 06:48:18;;;;;;;12.73;11.43;;;21.00;45.30;;;;;;10245247;28;20231;-73
2023/09/14 06:53:21;;;;;;;14.47;13.17;;;21.00;45.70;;;;;;10254634;28;20242;-73
2023/09/14 06:58:25;;;;;;;14.43;13.07;;;21.10;45.30;;;;;;10251660;28;20250;-73
2023/09/14 07:03:30;;;;;;;15.40;14.03;;;21.10;45.10;;;;;;10240550;28;21033;-73
2023/09/14 07:08:33;;;;;;;14.57;13.20;;;21.10;45.40;;;;;;10247497;28;21213;-73
2023/09/14 07:13:36;;;;;;;15.93;14.43;;;21.00;45.20;;;;;;10251189;28;20705;-73
2023/09/14 07:18:41;;;;;;;16.97;15.33;;;21.10;45.40;;;;;;10251229;28;20701;-73
2023/09/14 07:23:46;;;;;;;15.50;14.03;;;21.10;45.50;;;;;;10252743;28;20259;-73
2023/09/14 07:28:50;;;;;;;16.97;15.47;;;21.10;45.30;;;;;;10250620;28;20236;-73
2023/09/14 07:33:54;;;;;;;16.00;14.57;;;21.10;45.40;;;;;;10248097;28;20238;-73
2023/09/14 07:38:59;;;;;;;16.37;14.97;;;21.20;45.90;;;;;;10247126;28;20227;-74
2023/09/14 07:44:02;;;;;;;16.50;15.00;;;21.20;45.60;;;;;;10243287;28;20598;-73
2023/09/14 07:49:07;;;;;;;16.70;15.20;;;21.30;45.80;;;;;;10254248;28;20226;-74
2023/09/14 07:54:10;;;;;;;16.63;15.13;;;21.40;45.90;;;;;;10248301;28;20244;-73
2023/09/14 07:59:14;;;;;;;15.73;14.23;;;21.40;45.40;;;;;;10250318;28;20234;-73
2023/09/14 08:04:18;;;;;;;15.37;14.07;;;21.50;45.80;;;;;;10254461;28;20239;-73
2023/09/14 08:09:22;;;;;;;16.03;14.63;;;21.50;46.10;;;;;;10252192;28;20326;-73
2023/09/14 08:14:25;;;;;;;15.00;13.60;;;21.60;45.90;;;;;;10246369;28;20239;-73
2023/09/14 08:19:30;;;;;;;14.53;13.23;;;21.70;45.70;;;;;;10250453;28;20238;-73
2023/09/14 08:24:33;;;;;;;13.60;12.37;;;21.70;45.90;;;;;;10252035;28;20233;-73
2023/09/14 08:29:37;;;;;;;15.27;13.87;;;21.80;45.40;;;;;;10247671;28;21703;-72
2023/09/14 08:34:41;;;;;;;15.30;13.80;;;21.80;45.50;;;;;;10253943;28;20242;-72
2023/09/14 08:39:44;;;;;;;15.03;13.67;;;21.90;45.50;;;;;;10250249;28;20243;-73
2023/09/14 08:44:50;;;;;;;18.03;16.50;;;21.90;45.30;;;;;;10249197;28;20795;-72
2023/09/14 08:49:56;;;;;;;18.43;16.87;;;21.90;45.20;;;;;;10263593;28;20714;-73
2023/09/14 08:55:00;;;;;;;18.00;16.50;;;21.90;45.50;;;;;;10261467;28;20232;-73
2023/09/14 09:00:08;;;;;;;17.40;15.90;;;21.90;45.30;;;;;;10253805;28;20239;-73
2023/09/14 09:05:14;;;;;;;15.13;13.83;;;21.90;45.40;;;;;;10252936;28;20230;-75
2023/09/14 09:10:21;;;;;;;15.53;14.20;;;21.80;45.50;;;;;;10260005;28;20338;-73
2023/09/14 09:15:25;;;;;;;16.93;15.43;;;21.90;45.70;;;;;;10251044;28;20228;-73
2023/09/14 09:20:31;;;;;;;16.93;15.50;;;21.90;45.30;;;;;;10247336;28;20240;-71
2023/09/14 09:25:43;;;;;;;15.13;13.80;;;21.90;45.40;;;;;;10250245;28;20618;-73
2023/09/14 09:30:54;;;;;;;14.77;13.47;;;21.90;45.80;;;;;;10242728;28;20765;-73
2023/09/14 09:36:00;;;;;;;13.77;12.57;;;22.00;45.40;;;;;;10241284;28;20250;-72
2023/09/14 09:41:10;;;;;;;14.87;13.50;;;22.00;45.50;;;;;;10242654;28;20252;-72
2023/09/14 09:46:17;;;;;;;14.43;13.20;;;22.10;45.20;;;;;;10245557;28;20779;-73
2023/09/14 09:51:24;;;;;;;12.87;11.87;;;22.30;45.30;;;;;;10246458;28;20236;-73
2023/09/14 09:56:27;;;;;;;12.10;11.10;;;22.40;45.10;;;;;;10251966;28;20239;-73
2023/09/14 10:01:31;;;;;;;13.03;11.93;;;22.50;45.30;;;;;;10254613;28;20774;-73
2023/09/14 10:06:37;;;;;;;15.57;14.20;;;22.80;45.50;;;;;;10250419;28;20259;-73
2023/09/14 10:11:46;;;;;;;12.87;11.87;;;23.10;44.70;;;;;;10248847;28;20228;-73
2023/09/14 10:16:51;;;;;;;12.63;11.60;;;23.30;44.70;;;;;;10254473;28;20242;-73
2023/09/14 10:21:57;;;;;;;12.70;11.73;;;23.30;44.40;;;;;;10254076;28;20227;-73
2023/09/14 10:27:01;;;;;;;12.63;11.43;;;23.50;44.20;;;;;;10249780;28;20235;-73
2023/09/14 10:32:06;;;;;;;13.27;12.17;;;23.60;44.60;;;;;;10249688;28;20809;-73
2023/09/14 10:37:12;;;;;;;12.87;11.80;;;23.80;43.80;;;;;;10250032;28;21025;-73
2023/09/14 10:42:15;;;;;;;12.87;11.90;;;24.00;43.30;;;;;;10252329;28;20828;-73
2023/09/14 10:47:22;;;;;;;12.87;11.77;;;24.20;43.90;;;;;;10245689;28;20236;-73
2023/09/14 10:52:29;;;;;;;12.43;11.43;;;24.50;43.10;;;;;;10249816;28;20238;-73
2023/09/14 10:57:34;;;;;;;12.93;11.93;;;24.70;42.20;;;;;;10246243;28;20228;-73
2023/09/14 11:02:59;;;;;;;11.93;11.03;;;24.90;42.00;;;;;;10252127;28;21541;-73
2023/09/14 11:08:06;;;;;;;11.80;10.87;;;24.90;42.30;;;;;;10248476;28;21080;-73
2023/09/14 11:13:41;;;;;;;11.03;10.17;;;24.90;41.10;;;;;;10249018;28;20228;-73
2023/09/14 11:18:56;;;;;;;11.70;10.63;;;24.80;41.20;;;;;;10180873;28;20334;-73
2023/09/14 11:24:04;;;;;;;11.20;10.17;;;24.70;40.60;;;;;;10247670;28;20228;-73
2023/09/14 11:29:12;;;;;;;10.33;9.53;;;24.70;40.70;;;;;;10249456;28;20310;-73
2023/09/14 11:34:20;;;;;;;10.20;9.40;;;24.60;41.20;;;;;;10250100;28;20303;-72
2023/09/14 11:39:28;;;;;;;10.53;9.73;;;24.70;40.60;;;;;;10249793;28;21022;-73
2023/09/14 11:44:45;;;;;;;9.70;8.93;;;24.70;40.60;;;;;;10247877;28;20239;-73
2023/09/14 11:49:57;;;;;;;9.73;8.93;;;24.70;40.70;;;;;;10252324;28;20215;-72
2023/09/14 11:55:02;;;;;;;9.10;8.40;;;24.70;40.60;;;;;;10247962;28;20236;-72
2023/09/14 12:00:08;;;;;;;7.90;7.30;;;24.70;40.60;;;;;;10252023;28;20254;-72
2023/09/14 12:05:11;;;;;;;6.70;6.07;;;24.80;40.70;;;;;;10250536;28;20231;-72
2023/09/14 12:10:20;;;;;;;7.17;6.57;;;24.70;40.60;;;;;;10246757;28;20240;-72
2023/09/14 12:15:24;;;;;;;7.70;7.10;;;24.70;40.30;;;;;;10248814;28;20738;-72
2023/09/14 12:20:29;;;;;;;7.00;6.40;;;24.70;40.60;;;;;;10248221;28;20239;-73
2023/09/14 12:25:35;;;;;;;6.50;6.00;;;24.80;40.20;;;;;;10254322;28;20236;-73
2023/09/14 12:30:39;;;;;;;6.57;6.07;;;24.70;39.90;;;;;;10257887;28;20259;-72
2023/09/14 12:35:44;;;;;;;6.30;5.80;;;24.70;40.20;;;;;;10256093;28;20319;-72
2023/09/14 12:40:48;;;;;;;6.23;5.67;;;24.70;39.90;;;;;;10246822;28;20247;-72
2023/09/14 12:45:52;;;;;;;6.57;6.07;;;24.70;39.50;;;;;;10246674;28;20234;-72
2023/09/14 12:50:57;;;;;;;6.57;5.97;;;24.70;40.00;;;;;;10239398;28;20986;-72
2023/09/14 12:56:04;;;;;;;6.13;5.63;;;24.80;39.70;;;;;;10248448;28;20232;-72
2023/09/14 13:01:08;;;;;;;6.43;5.87;;;24.80;38.80;;;;;;10247814;28;20224;-72
2023/09/14 13:06:12;;;;;;;6.03;5.43;;;24.90;39.80;;;;;;10245444;28;20239;-72
2023/09/14 13:11:31;;;;;;;6.57;6.07;;;25.00;39.80;;;;;;10245764;28;20228;-72
2023/09/14 13:16:35;;;;;;;7.07;6.47;;;25.20;38.40;;;;;;10250857;28;20311;-72
2023/09/14 13:21:43;;;;;;;6.60;6.00;;;25.20;39.10;;;;;;10253642;28;20238;-72
2023/09/14 13:26:48;;;;;;;6.10;5.70;;;25.20;38.90;;;;;;10250527;28;20220;-72
2023/09/14 13:31:51;;;;;;;6.83;6.23;;;25.30;38.00;;;;;;10251312;28;20224;-71
2023/09/14 13:36:54;;;;;;;5.67;5.27;;;25.30;38.30;;;;;;10254636;28;20754;-73
2023/09/14 13:41:59;;;;;;;6.20;5.80;;;25.30;38.50;;;;;;10255143;28;20848;-71
2023/09/14 13:47:03;;;;;;;6.10;5.60;;;25.30;37.90;;;;;;10252456;28;20231;-72
2023/09/14 13:52:06;;;;;;;5.60;5.20;;;25.30;38.20;;;;;;10248563;28;20224;-72
2023/09/14 13:57:12;;;;;;;5.50;5.10;;;25.40;38.20;;;;;;10254768;28;20498;-72
2023/09/14 14:02:16;;;;;;;6.50;6.00;;;25.40;38.00;;;;;;10252145;28;20351;-71
2023/09/14 14:07:19;;;;;;;5.90;5.40;;;25.40;37.90;;;;;;10254216;28;20248;-72
2023/09/14 14:12:24;;;;;;;5.30;4.90;;;25.40;37.70;;;;;;10259855;28;20243;-72
2023/09/14 14:17:28;;;;;;;4.87;4.57;;;25.40;37.10;;;;;;10255755;28;20227;-72
2023/09/14 14:22:31;;;;;;;5.27;4.77;;;25.50;37.40;;;;;;10264359;28;21152;-71
2023/09/14 14:27:38;;;;;;;5.33;4.93;;;25.50;37.40;;;;;;10251842;28;20220;-72
2023/09/14 14:32:42;;;;;;;5.13;4.77;;;25.60;36.30;;;;;;10259197;28;20220;-72
2023/09/14 14:37:45;;;;;;;4.97;4.57;;;25.70;37.10;;;;;;10256578;28;20231;-72
2023/09/14 14:42:50;;;;;;;4.90;4.40;;;25.80;36.90;;;;;;10261016;28;20233;-70
2023/09/14 14:47:54;;;;;;;4.73;4.33;;;25.80;36.10;;;;;;10257742;28;20322;-72
2023/09/14 14:52:57;;;;;;;4.00;3.70;;;25.90;36.50;;;;;;10259538;28;20232;-71
2023/09/14 14:58:02;;;;;;;4.30;4.00;;;25.90;36.30;;;;;;10252402;28;20220;-71
2023/09/14 15:03:07;;;;;;;4.60;4.30;;;25.90;35.40;;;;;;10256223;28;20340;-74
2023/09/14 15:08:10;;;;;;;4.73;4.33;;;25.90;35.90;;;;;;10253591;28;20228;-71
2023/09/14 15:13:15;;;;;;;4.10;3.80;;;25.80;35.50;;;;;;10253239;28;20392;-73
2023/09/14 15:18:19;;;;;;;4.53;4.23;;;25.80;35.30;;;;;;10255482;28;20251;-70
2023/09/14 15:23:22;;;;;;;4.80;4.40;;;25.80;35.70;;;;;;10250989;28;20838;-71
2023/09/14 15:28:27;;;;;;;4.57;4.17;;;25.80;35.60;;;;;;10251161;28;20229;-70
2023/09/14 15:33:30;;;;;;;4.60;4.20;;;25.80;35.10;;;;;;10256264;28;20239;-71
2023/09/14 15:38:33;;;;;;;4.80;4.10;;;25.80;35.50;;;;;;10257927;28;20578;-71
2023/09/14 15:43:38;;;;;;;4.57;4.27;;;25.90;35.30;;;;;;10258538;28;20759;-71
2023/09/14 15:48:41;;;;;;;4.20;3.80;;;25.90;34.80;;;;;;10257633;28;20255;-75
2023/09/14 15:53:47;;;;;;;4.27;3.80;;;25.90;35.20;;;;;;10259584;28;20239;-71
2023/09/14 15:58:52;;;;;;;4.60;4.27;;;25.90;35.20;;;;;;10258945;28;20303;-73
2023/09/14 16:03:56;;;;;;;4.40;4.00;;;25.90;34.60;;;;;;10264259;28;20239;-74
2023/09/14 16:08:59;;;;;;;3.97;3.53;;;25.80;34.90;;;;;;10263304;28;20232;-73
2023/09/14 16:14:04;;;;;;;4.20;3.90;;;25.80;35.10;;;;;;10263510;28;20228;-73
2023/09/14 16:19:10;;;;;;;4.77;4.37;;;25.70;34.80;;;;;;10264044;28;20228;-73
2023/09/14 16:24:13;;;;;;;5.33;4.90;;;25.70;35.30;;;;;;10263273;28;20637;-73
2023/09/14 16:29:18;;;;;;;5.17;4.83;;;25.60;35.00;;;;;;10262202;28;20633;-70
2023/09/14 16:34:21;;;;;;;5.23;4.70;;;25.50;34.80;;;;;;10257227;28;20693;-70
2023/09/14 16:39:26;;;;;;;4.53;4.23;;;25.50;35.40;;;;;;10254672;28;20231;-70
2023/09/14 16:44:31;;;;;;;4.13;3.83;;;25.50;35.50;;;;;;10258350;28;20278;-70
2023/09/14 16:49:34;;;;;;;4.50;4.20;;;25.40;35.30;;;;;;10260606;28;20307;-70
2023/09/14 16:54:37;;;;;;;4.23;3.93;;;25.40;35.70;;;;;;10261038;28;20251;-75
2023/09/14 16:59:42;;;;;;;4.47;3.97;;;25.40;35.90;;;;;;10253361;28;21015;-71
2023/09/14 17:04:45;;;;;;;4.33;4.03;;;25.30;35.80;;;;;;10260768;28;20238;-71
2023/09/14 17:09:49;;;;;;;4.23;3.80;;;25.30;36.00;;;;;;10262458;28;20235;-71
2023/09/14 17:14:54;;;;;;;3.93;3.63;;;25.30;35.90;;;;;;10264751;28;20277;-71
2023/09/14 17:19:57;;;;;;;3.43;3.20;;;25.30;35.40;;;;;;10265808;28;20232;-70
2023/09/14 17:25:01;;;;;;;4.10;3.80;;;25.30;35.90;;;;;;10261108;28;20228;-74
2023/09/14 17:30:07;;;;;;;3.70;3.40;;;25.20;35.70;;;;;;10266798;28;20233;-76
2023/09/14 17:35:11;;;;;;;3.60;3.40;;;25.20;35.80;;;;;;10256160;28;20815;-70
2023/09/14 17:40:15;;;;;;;4.43;4.13;;;25.10;35.90;;;;;;10267395;28;20224;-75
2023/09/14 17:45:19;;;;;;;4.23;3.87;;;25.00;36.10;;;;;;10263934;28;20236;-73
2023/09/14 17:50:23;;;;;;;4.30;4.00;;;24.90;36.10;;;;;;10256273;28;20643;-72
2023/09/14 17:55:29;;;;;;;3.87;3.57;;;24.90;36.20;;;;;;10265313;28;20765;-72
2023/09/14 18:00:34;;;;;;;3.87;3.57;;;24.80;36.00;;;;;;10265398;28;20240;-73
2023/09/14 18:05:43;;;;;;;4.33;3.90;;;24.70;36.00;;;;;;10260300;28;20324;-73
2023/09/14 18:10:46;;;;;;;4.80;4.30;;;24.70;36.20;;;;;;10259919;28;20236;-72
2023/09/14 18:15:54;;;;;;;3.90;3.40;;;24.60;36.20;;;;;;10258596;28;20278;-73
2023/09/14 18:20:58;;;;;;;3.80;3.50;;;24.50;36.00;;;;;;10259357;28;20789;-73
2023/09/14 18:26:03;;;;;;;5.50;3.77;;;24.40;36.00;;;;;;10259127;28;20225;-73
2023/09/14 18:31:11;;;;;;;4.40;4.10;;;24.30;36.00;;;;;;10256929;28;20947;-73
2023/09/14 18:36:15;;;;;;;4.30;4.00;;;24.20;36.00;;;;;;10257179;28;20242;-73
2023/09/14 18:41:19;;;;;;;3.70;3.50;;;24.10;36.20;;;;;;10264602;28;20239;-73
2023/09/14 18:46:24;;;;;;;4.30;4.00;;;24.00;36.40;;;;;;10249583;28;20246;-74
2023/09/14 18:51:27;;;;;;;4.10;3.80;;;23.90;36.50;;;;;;10255891;28;20256;-73
2023/09/14 18:56:30;;;;;;;5.10;4.60;;;23.80;36.60;;;;;;10263296;28;20619;-73
2023/09/14 19:01:35;;;;;;;4.47;4.10;;;23.80;36.70;;;;;;10264184;28;20259;-73
2023/09/14 19:06:38;;;;;;;4.23;3.93;;;23.70;36.60;;;;;;10261566;28;21259;-73
2023/09/14 19:11:41;;;;;;;5.10;4.70;;;23.70;36.70;;;;;;10263442;28;20383;-73
2023/09/14 19:16:46;;;;;;;5.53;5.00;;;23.60;36.80;;;;;;10259548;28;20239;-73
2023/09/14 19:21:52;;;;;;;5.27;4.80;;;23.60;37.00;;;;;;10262479;28;20234;-72
2023/09/14 19:26:55;;;;;;;5.77;5.27;;;23.40;36.80;;;;;;10251628;28;20291;-72
2023/09/14 19:32:00;;;;;;;5.93;5.43;;;23.40;37.00;;;;;;10256119;28;20232;-72
2023/09/14 19:37:04;;;;;;;5.97;5.53;;;23.30;37.40;;;;;;10255981;28;20228;-72
2023/09/14 19:42:07;;;;;;;6.70;5.70;;;23.20;37.40;;;;;;10262107;28;20252;-72
2023/09/14 19:47:12;;;;;;;6.50;6.00;;;23.10;38.30;;;;;;10257078;28;20220;-73
2023/09/14 19:52:15;;;;;;;6.57;5.87;;;22.90;37.80;;;;;;10258133;28;20238;-73
2023/09/14 19:57:18;;;;;;;7.27;6.57;;;22.80;37.70;;;;;;10260065;28;21197;-73
2023/09/14 20:02:24;;;;;;;6.10;5.57;;;22.70;38.10;;;;;;10255583;28;20371;-72
2023/09/14 20:07:27;;;;;;;6.10;5.60;;;22.50;38.70;;;;;;10257509;28;20733;-73
2023/09/14 20:12:31;;;;;;;5.63;5.13;;;22.50;38.70;;;;;;10259559;28;20223;-73
2023/09/14 20:17:35;;;;;;;6.70;6.10;;;22.50;38.80;;;;;;10255094;28;20231;-73
2023/09/14 20:22:39;;;;;;;5.57;5.17;;;22.50;38.70;;;;;;10252193;28;20347;-73
2023/09/14 20:27:42;;;;;;;5.77;5.37;;;22.50;38.70;;;;;;10252701;28;20228;-73
2023/09/14 20:32:47;;;;;;;5.83;5.43;;;22.50;38.70;;;;;;10249315;28;20387;-74
2023/09/14 20:37:50;;;;;;;5.50;5.10;;;22.50;38.70;;;;;;10254069;28;20237;-73
2023/09/14 20:42:53;;;;;;;6.37;5.87;;;22.50;38.70;;;;;;10261243;28;20599;-73
2023/09/14 20:47:58;;;;;;;6.80;6.07;;;22.50;38.70;;;;;;10264601;28;20283;-73
2023/09/14 20:53:02;;;;;;;6.80;6.30;;;22.50;38.80;;;;;;10262761;28;20228;-73
2023/09/14 20:58:05;;;;;;;6.47;5.97;;;22.50;38.70;;;;;;10259865;28;20234;-73
2023/09/14 21:03:10;;;;;;;6.83;6.23;;;22.40;38.70;;;;;;10228492;28;20362;-72
2023/09/14 21:08:13;;;;;;;6.30;5.70;;;22.40;39.40;;;;;;10237306;28;20224;-73
2023/09/14 21:13:16;;;;;;;6.73;6.23;;;22.30;39.20;;;;;;10265671;28;20326;-73
2023/09/14 21:18:22;;;;;;;6.40;5.90;;;22.40;39.40;;;;;;10258414;28;20671;-73
2023/09/14 21:23:25;;;;;;;5.97;5.47;;;22.40;39.80;;;;;;10262043;28;20937;-73
2023/09/14 21:28:28;;;;;;;6.13;5.63;;;22.40;39.50;;;;;;10262564;28;20233;-72
2023/09/14 21:33:33;;;;;;;7.00;6.37;;;22.40;39.50;;;;;;10267172;28;20242;-73
2023/09/14 21:38:36;;;;;;;6.90;6.30;;;22.50;39.80;;;;;;10264319;28;20800;-73
2023/09/14 21:43:39;;;;;;;6.70;6.20;;;22.40;39.20;;;;;;10267892;28;20238;-73
2023/09/14 21:48:44;;;;;;;6.83;6.33;;;22.40;39.40;;;;;;10270316;28;20859;-73
2023/09/14 21:53:48;;;;;;;8.07;7.17;;;22.40;39.60;;;;;;10266737;28;20230;-73
2023/09/14 21:58:51;;;;;;;8.07;6.30;;;22.40;39.50;;;;;;10264598;28;20319;-73
2023/09/14 22:03:56;;;;;;;6.70;6.20;;;22.40;39.60;;;;;;10267172;28;20232;-73
2023/09/14 22:08:59;;;;;;;6.17;5.67;;;22.40;39.60;;;;;;10264392;28;21001;-73
2023/09/14 22:14:03;;;;;;;6.43;5.93;;;22.40;39.50;;;;;;10267035;28;20232;-73
2023/09/14 22:19:07;;;;;;;7.47;6.77;;;22.40;39.30;;;;;;10263952;28;20606;-74
2023/09/14 22:24:10;;;;;;;9.03;8.23;;;22.30;39.50;;;;;;10268969;28;20604;-73
2023/09/14 22:29:14;;;;;;;7.70;7.07;;;22.30;39.10;;;;;;10264748;28;20236;-73
2023/09/14 22:34:18;;;;;;;6.27;5.87;;;22.20;38.90;;;;;;10259466;28;20227;-73
2023/09/14 22:39:23;;;;;;;7.50;6.80;;;22.20;39.10;;;;;;10263442;28;20309;-73
2023/09/14 22:44:27;;;;;;;7.20;6.50;;;22.10;39.20;;;;;;10262242;28;20228;-73
2023/09/14 22:49:32;;;;;;;8.10;7.53;;;22.00;39.10;;;;;;10261690;28;20231;-73
2023/09/14 22:54:35;;;;;;;8.03;7.33;;;22.00;39.30;;;;;;10250988;28;20227;-73
2023/09/14 22:59:39;;;;;;;8.03;7.33;;;21.90;38.80;;;;;;10259124;28;20251;-73
2023/09/14 23:04:43;;;;;;;7.47;6.87;;;21.80;38.80;;;;;;10261517;28;20242;-73
2023/09/14 23:09:47;;;;;;;7.40;6.90;;;21.70;39.00;;;;;;10256299;28;20227;-73
2023/09/14 23:14:50;;;;;;;7.57;6.87;;;21.70;39.00;;;;;;10257228;28;20235;-73
2023/09/14 23:19:57;;;;;;;7.03;6.43;;;21.60;39.10;;;;;;10255306;28;20224;-73
2023/09/14 23:25:00;;;;;;;7.57;6.97;;;21.60;39.20;;;;;;10254205;28;20228;-73
2023/09/14 23:30:05;;;;;;;6.80;6.30;;;21.50;39.10;;;;;;10263062;28;20219;-73
2023/09/14 23:35:10;;;;;;;8.13;7.43;;;21.40;39.00;;;;;;10256458;28;20223;-73
2023/09/14 23:40:24;;;;;;;7.43;6.80;;;21.40;39.10;;;;;;10259675;28;20608;-73
2023/09/14 23:45:28;;;;;;;7.03;6.37;;;21.30;38.90;;;;;;10260401;28;20327;-73
2023/09/14 23:50:33;;;;;;;7.67;6.97;;;21.20;39.00;;;;;;10262630;28;20255;-73
2023/09/14 23:55:36;;;;;;;7.10;6.60;;;21.10;39.00;;;;;;10259357;28;20231;-74
